Saint Martin, MN (56376)

4:03 PM CDT on April 28, 2015 (GMT -0500)
Paynesville | | Change Station
CLOSE
Current Station
Airport
Location: Paynesville,
Elevation: 1181 ft
Nearby Weather Stations

Elev 1181 ft 45.37 °N, 94.74 °W | Updated 9 minutes ago

Overcast
Overcast
57 °F
Feels Like 57 °F
N
13
Wind Variable Wind from West
Gusts 21 mph

Today
High -- | Low -- °F
--% Chance of Precip.
Yesterday
High -- | Low -- °F
Precip. -- in
6:11 AM 8:21 PM
Waxing Gibbous, 76% visible
Pressure 30.12 in
Visibility 10.0 miles
Clouds Scattered Clouds 3700 ft
Scattered Clouds 4700 ft
Overcast 8000 ft
Dew Point 44 °F
Humidity 60%
Rainfall 0.00 in
Snow Depth Not available.
UV 2 out of 12
Pollen 10.20 out of 12
Air Quality Not available.
Flu Activity Local Activity
METAR KPEX 282054Z AUTO 27011G18KT 10SM SCT037 SCT047 OVC080 14/07 A3012 RMK AO2 T01410065

More Conditions Fewer Conditions

Pressure 30.12 in
Visibility 10.0 miles
Clouds Scattered Clouds 3700 ft
Scattered Clouds 4700 ft
Overcast 8000 ft
Dew Point 44 °F
Humidity 60%
Rainfall 0.00 in
Snow Depth Not available.
UV 2 out of 12
Pollen 10.20 out of 12
Air Quality Not available.
Flu Activity Local Activity
METAR KPEX 282054Z AUTO 27011G18KT 10SM SCT037 SCT047 OVC080 14/07 A3012 RMK AO2 T01410065

More Conditions Fewer Conditions

10-Day Weather Forecast

Almanac

Astronomy

Apr. 28, 2015 Rise Set
Actual Time
Civil Twilight
Nautical Twilight
Astronomical Twilight
Moon
Length of Visible Light
Length of Day
Tomorrow will be .
, % of the Moon is Illuminated

Today's Extremes

State Highs State Lows

Community

WunderPhotos

Upload Photos

1,817,749 photos uploaded!

WunderBlogs® & News

Nearby

Air Quality

  Air Quality AQ Index Pollutant
Not available.

Snow Depth

Station Depth Elevation

Earthquake Activity

City Distance Mag. Time & Date
Minimum magnitude displayed is 2.5.

Coastal Water Temperatures

Place Temperature

Stations

Nearby Weather Stations

Station Location Temp. Windchill Dew Point Humidity Wind Precip. Elev Updated Type